CheckWX is a tool to help pilots better visualize weather data.  It is not intended as a substitute for an official pre-flight weather briefing.

08:06:01 UTC

KHTS TAF
Tri-State / Milton J Ferguson Field Airport
Huntington, West Virginia, USA
KHTS 190520Z 1906/2006 00000KT P6SM SKC FM191700 VRB03KT P6SM FEW060 FM191900 VRB03KT P6SM FEW250

Mar-19@
06:00 UTC

Mar-19 @ 06:00 UTC

Mar-19@
17:00 UTC

Mar-19 @ 17:00 UTC

KHTS 190520Z 1906/2006 00000KT P6SM SKC
Cloud Levels
  • Clear skies

Mar-19@
17:00 UTC

Mar-19 @ 17:00 UTC

Mar-19@
19:00 UTC

Mar-19 @ 19:00 UTC

FM191700 VRB03KT P6SM FEW060

From

From Standard forecast or significant change

Wind
  • Variable at 3 KTS
Cloud Levels
  • Few at 6,000' AGL

Mar-19@
19:00 UTC

Mar-19 @ 19:00 UTC

Mar-20@
06:00 UTC

Mar-20 @ 06:00 UTC

FM191900 VRB03KT P6SM FEW250

From

From Standard forecast or significant change

Wind
  • Variable at 3 KTS
Cloud Levels
  • Few at 25,000' AGL